Time;durP1;ratioP1;P1;durP2;ratioP2;P2;SDS_P1;SDS_P2;PMS_P1;PMS_P2;Temp;Humidity;BMP_temperature;BMP_pressure;BME280_temperature;BME280_humidity;BME280_pressure;Samples;Min_cycle;Max_cycle;Signal;HPM_P1;HPM_P2
2023/08/31 00:01:59;;;;;;;;;4.00;4.00;;;;;;;;5019321;28;45517;-75
2023/08/31 00:04:24;;;;;;;;;8.67;6.00;;;;;;;;5016448;28;46281;-76
2023/08/31 00:06:49;;;;;;;;;4.00;4.00;;;;;;;;5019135;28;45281;-76
2023/08/31 00:09:14;;;;;;;;;4.33;4.33;;;;;;;;5015189;28;45577;-76
2023/08/31 00:11:40;;;;;;;;;0.00;0.00;;;;;;;;5017239;28;45394;-76
2023/08/31 00:14:05;;;;;;;;;6.00;6.00;;;;;;;;5007839;28;46150;-76
2023/08/31 00:16:30;;;;;;;;;6.33;5.00;;;;;;;;5018142;28;45347;-77
2023/08/31 00:18:56;;;;;;;;;4.00;4.00;;;;;;;;5014898;28;47531;-75
2023/08/31 00:21:21;;;;;;;;;4.33;4.33;;;;;;;;5027081;28;45408;-76
2023/08/31 00:23:46;;;;;;;;;3.00;3.00;;;;;;;;5016398;28;45589;-75
2023/08/31 00:26:11;;;;;;;;;7.00;4.33;;;;;;;;5018930;28;45433;-76
2023/08/31 00:28:37;;;;;;;;;4.33;4.33;;;;;;;;5019193;28;45364;-76
2023/08/31 00:31:03;;;;;;;;;4.67;4.67;;;;;;;;5019611;28;45336;-75
2023/08/31 00:33:28;;;;;;;;;3.67;2.67;;;;;;;;5016244;28;46815;-74
2023/08/31 00:35:57;;;;;;;;;2.33;1.67;;;;;;;;5019374;28;45253;-75
2023/08/31 00:38:22;;;;;;;;;4.00;4.00;;;;;;;;5018426;28;45178;-76
2023/08/31 00:40:48;;;;;;;;;5.67;3.33;;;;;;;;5021141;28;45741;-76
2023/08/31 00:43:15;;;;;;;;;4.00;3.33;;;;;;;;5014774;28;46391;-76
2023/08/31 00:45:40;;;;;;;;;6.33;3.33;;;;;;;;5017502;28;45458;-76
2023/08/31 00:48:05;;;;;;;;;3.67;2.67;;;;;;;;5017745;28;45443;-75
2023/08/31 00:50:31;;;;;;;;;4.67;3.33;;;;;;;;5019256;28;45390;-75
2023/08/31 00:52:56;;;;;;;;;2.67;2.67;;;;;;;;5015305;28;45385;-76
2023/08/31 00:55:22;;;;;;;;;5.00;3.67;;;;;;;;5017623;28;45325;-75
2023/08/31 00:57:47;;;;;;;;;2.67;2.67;;;;;;;;5016002;28;45451;-77
2023/08/31 01:00:13;;;;;;;;;3.67;3.33;;;;;;;;5001175;28;45905;-76
2023/08/31 01:03:02;;;;;;;;;5.33;2.67;;;;;;;;5014976;28;48466;-75
2023/08/31 01:05:34;;;;;;;;;5.00;4.00;;;;;;;;5017001;28;45786;-75
2023/08/31 01:08:14;;;;;;;;;4.67;3.67;;;;;;;;5013794;28;45726;-75
2023/08/31 01:10:40;;;;;;;;;6.00;3.00;;;;;;;;5011586;28;45216;-75
2023/08/31 01:13:13;;;;;;;;;4.00;3.25;;;;;;;;5015086;28;46277;-76
2023/08/31 01:15:40;;;;;;;;;5.00;4.33;;;;;;;;5010053;28;45249;-77
2023/08/31 01:18:06;;;;;;;;;5.00;3.00;;;;;;;;5015986;28;45270;-76
2023/08/31 01:20:38;;;;;;;;;4.00;4.00;;;;;;;;5015849;28;45428;-76
2023/08/31 01:23:09;;;;;;;;;1.67;1.67;;;;;;;;5016163;28;45310;-76
2023/08/31 01:25:36;;;;;;;;;4.00;2.33;;;;;;;;5012186;28;45316;-76
2023/08/31 01:28:02;;;;;;;;;3.33;3.33;;;;;;;;5015710;28;45217;-76
2023/08/31 01:30:31;;;;;;;;;2.33;2.33;;;;;;;;5017045;28;46204;-76
2023/08/31 01:32:56;;;;;;;;;4.33;2.33;;;;;;;;5016122;28;46218;-76
2023/08/31 01:35:21;;;;;;;;;4.00;2.33;;;;;;;;5010008;28;45287;-76
2023/08/31 01:37:58;;;;;;;;;4.00;4.00;;;;;;;;5016683;28;45458;-76
2023/08/31 01:40:43;;;;;;;;;7.00;3.00;;;;;;;;5018233;28;45317;-76
2023/08/31 01:43:10;;;;;;;;;5.00;4.00;;;;;;;;5014388;28;46303;-76
2023/08/31 01:45:37;;;;;;;;;6.00;2.67;;;;;;;;5012909;28;45288;-77
2023/08/31 01:48:03;;;;;;;;;5.00;4.00;;;;;;;;5014734;28;45431;-77
2023/08/31 01:50:28;;;;;;;;;4.00;4.00;;;;;;;;5012307;28;45218;-77
2023/08/31 01:52:53;;;;;;;;;5.00;4.00;;;;;;;;5014659;28;46418;-76
2023/08/31 01:55:18;;;;;;;;;5.00;3.00;;;;;;;;5014329;28;45343;-76
2023/08/31 01:57:43;;;;;;;;;4.67;2.67;;;;;;;;5014697;28;45453;-77
2023/08/31 02:00:09;;;;;;;;;4.33;2.33;;;;;;;;5016696;28;47889;-76
2023/08/31 02:02:35;;;;;;;;;7.67;3.00;;;;;;;;5013958;28;45455;-77
2023/08/31 02:05:01;;;;;;;;;3.67;2.33;;;;;;;;5011982;28;45380;-77
2023/08/31 02:07:27;;;;;;;;;2.33;1.67;;;;;;;;5018910;28;45249;-77
2023/08/31 02:09:52;;;;;;;;;2.33;2.33;;;;;;;;5011083;28;45345;-77
2023/08/31 02:12:17;;;;;;;;;2.33;2.33;;;;;;;;5021263;28;46219;-78
2023/08/31 02:14:42;;;;;;;;;5.00;3.00;;;;;;;;5022045;28;45357;-76
2023/08/31 02:17:08;;;;;;;;;6.67;3.67;;;;;;;;5022006;28;45423;-77
2023/08/31 02:19:33;;;;;;;;;3.33;3.33;;;;;;;;5015882;28;46111;-77
2023/08/31 02:21:58;;;;;;;;;2.67;2.67;;;;;;;;5030022;28;46426;-77
2023/08/31 02:24:23;;;;;;;;;3.00;3.00;;;;;;;;5016902;28;45305;-76
2023/08/31 02:26:49;;;;;;;;;2.50;2.50;;;;;;;;5020055;28;45249;-76
2023/08/31 02:29:14;;;;;;;;;5.33;4.00;;;;;;;;5018746;28;45704;-76
2023/08/31 02:31:39;;;;;;;;;5.33;2.67;;;;;;;;5029140;28;47732;-76
2023/08/31 02:34:06;;;;;;;;;3.00;2.33;;;;;;;;5010502;28;45386;-76
2023/08/31 02:36:31;;;;;;;;;5.00;2.67;;;;;;;;5020852;28;45241;-76
2023/08/31 02:38:56;;;;;;;;;2.67;2.67;;;;;;;;5011902;28;45286;-76
2023/08/31 02:41:21;;;;;;;;;3.33;3.33;;;;;;;;5020535;28;45282;-77
2023/08/31 02:43:49;;;;;;;;;4.33;4.00;;;;;;;;5013752;28;45366;-76
2023/08/31 02:46:14;;;;;;;;;2.00;2.00;;;;;;;;5016611;28;45477;-76
2023/08/31 02:48:40;;;;;;;;;4.00;4.00;;;;;;;;5013153;28;45251;-76
2023/08/31 02:51:05;;;;;;;;;3.67;3.67;;;;;;;;5020637;28;46372;-76
2023/08/31 02:53:30;;;;;;;;;4.00;3.67;;;;;;;;5014045;28;45200;-76
2023/08/31 02:55:56;;;;;;;;;3.67;3.67;;;;;;;;5020216;28;45467;-76
2023/08/31 02:58:21;;;;;;;;;3.33;3.33;;;;;;;;5016615;28;45465;-75
2023/08/31 03:00:48;;;;;;;;;5.67;4.33;;;;;;;;5012850;28;45316;-75
2023/08/31 03:03:16;;;;;;;;;3.00;3.00;;;;;;;;5015258;28;45458;-75
2023/08/31 03:05:41;;;;;;;;;4.00;4.00;;;;;;;;5019140;28;45307;-75
2023/08/31 03:08:07;;;;;;;;;4.67;3.00;;;;;;;;5016453;28;45524;-75
2023/08/31 03:10:32;;;;;;;;;4.00;2.67;;;;;;;;5022204;28;46569;-76
2023/08/31 03:12:57;;;;;;;;;4.33;3.00;;;;;;;;5021486;28;45720;-76
2023/08/31 03:15:23;;;;;;;;;4.33;3.33;;;;;;;;5014967;28;45501;-76
2023/08/31 03:17:48;;;;;;;;;4.00;4.00;;;;;;;;5020105;28;44896;-76
2023/08/31 03:20:13;;;;;;;;;3.33;3.33;;;;;;;;5023662;28;46539;-76
2023/08/31 03:22:39;;;;;;;;;4.00;3.00;;;;;;;;5021201;28;45311;-76
2023/08/31 03:25:04;;;;;;;;;3.33;2.00;;;;;;;;5019368;28;44909;-75
2023/08/31 03:27:29;;;;;;;;;4.67;3.00;;;;;;;;5022338;28;45387;-76
2023/08/31 03:29:54;;;;;;;;;3.67;3.33;;;;;;;;5014298;28;47168;-75
2023/08/31 03:32:21;;;;;;;;;4.33;2.67;;;;;;;;5019374;28;45344;-77
2023/08/31 03:34:46;;;;;;;;;3.33;3.33;;;;;;;;5013697;28;45444;-78
2023/08/31 03:37:12;;;;;;;;;5.00;4.00;;;;;;;;5028096;28;46618;-75
2023/08/31 03:39:37;;;;;;;;;4.33;3.00;;;;;;;;5012242;28;45312;-77
2023/08/31 03:42:02;;;;;;;;;5.00;3.67;;;;;;;;5020834;28;45508;-75
2023/08/31 03:44:28;;;;;;;;;7.67;4.00;;;;;;;;5010812;28;45269;-75
2023/08/31 03:46:53;;;;;;;;;2.33;2.33;;;;;;;;5012933;28;45253;-75
2023/08/31 03:49:18;;;;;;;;;4.33;3.67;;;;;;;;5016808;28;47276;-75
2023/08/31 03:51:43;;;;;;;;;3.00;2.00;;;;;;;;5012925;28;45316;-76
2023/08/31 03:54:08;;;;;;;;;3.67;3.67;;;;;;;;5010592;28;45249;-75
2023/08/31 03:56:34;;;;;;;;;3.33;2.67;;;;;;;;5012276;28;45269;-75
2023/08/31 03:59:02;;;;;;;;;3.33;2.67;;;;;;;;5011007;28;45456;-75
2023/08/31 04:01:28;;;;;;;;;3.00;2.00;;;;;;;;5013620;28;45401;-75
2023/08/31 04:03:53;;;;;;;;;4.00;4.00;;;;;;;;5014977;28;45429;-76
2023/08/31 04:06:18;;;;;;;;;3.00;3.00;;;;;;;;5014526;28;45334;-75
2023/08/31 04:08:43;;;;;;;;;8.33;4.33;;;;;;;;5013184;28;45304;-77
2023/08/31 04:11:09;;;;;;;;;7.00;5.00;;;;;;;;5000745;28;45364;-75
2023/08/31 04:13:34;;;;;;;;;6.00;3.67;;;;;;;;5009802;28;45461;-76
2023/08/31 04:15:59;;;;;;;;;8.33;5.00;;;;;;;;5011178;28;45495;-77
2023/08/31 04:18:24;;;;;;;;;4.00;4.00;;;;;;;;5012952;28;45435;-77
2023/08/31 04:20:53;;;;;;;;;5.00;4.00;;;;;;;;5020407;28;45286;-77
2023/08/31 04:23:21;;;;;;;;;5.67;4.33;;;;;;;;5016434;28;45383;-77
2023/08/31 04:25:47;;;;;;;;;4.33;3.33;;;;;;;;5011243;28;45392;-76
2023/08/31 04:28:12;;;;;;;;;7.33;5.00;;;;;;;;5015060;28;45362;-77
2023/08/31 04:30:38;;;;;;;;;4.33;4.00;;;;;;;;5011480;28;45147;-76
2023/08/31 04:33:04;;;;;;;;;5.00;5.00;;;;;;;;5010903;28;45258;-76
2023/08/31 04:35:31;;;;;;;;;5.00;3.67;;;;;;;;5017644;28;45174;-77
2023/08/31 04:37:56;;;;;;;;;4.33;4.00;;;;;;;;5014536;28;45403;-77
2023/08/31 04:40:21;;;;;;;;;7.00;4.00;;;;;;;;5017342;28;45445;-78
2023/08/31 04:42:46;;;;;;;;;5.33;4.67;;;;;;;;5015999;28;46335;-76
2023/08/31 04:45:12;;;;;;;;;3.00;3.00;;;;;;;;5011751;28;45374;-77
2023/08/31 04:47:37;;;;;;;;;6.33;5.33;;;;;;;;5017238;28;45378;-77
2023/08/31 04:50:03;;;;;;;;;6.00;3.67;;;;;;;;5012536;28;45419;-76
2023/08/31 04:52:28;;;;;;;;;4.00;4.00;;;;;;;;5015126;28;45392;-74
2023/08/31 04:54:53;;;;;;;;;4.67;3.33;;;;;;;;5006215;28;45322;-75
2023/08/31 04:57:19;;;;;;;;;4.33;3.33;;;;;;;;5014213;28;46982;-76
2023/08/31 04:59:44;;;;;;;;;6.67;5.00;;;;;;;;5007936;28;45415;-75
2023/08/31 05:02:10;;;;;;;;;4.00;3.00;;;;;;;;5015860;28;45446;-75
2023/08/31 05:04:35;;;;;;;;;5.00;4.33;;;;;;;;5008454;28;45459;-76
2023/08/31 05:07:00;;;;;;;;;5.00;4.00;;;;;;;;5015394;28;47348;-76
2023/08/31 05:09:26;;;;;;;;;3.00;3.00;;;;;;;;5015069;28;45412;-76
2023/08/31 05:11:51;;;;;;;;;8.00;4.33;;;;;;;;5016540;28;45600;-76
2023/08/31 05:14:17;;;;;;;;;3.33;2.00;;;;;;;;5010106;28;45366;-76
2023/08/31 05:16:42;;;;;;;;;6.33;5.00;;;;;;;;5015030;28;46026;-77
2023/08/31 05:19:07;;;;;;;;;6.33;3.67;;;;;;;;5013987;28;45346;-77
2023/08/31 05:21:32;;;;;;;;;6.00;4.00;;;;;;;;5018853;28;45316;-76
2023/08/31 05:23:58;;;;;;;;;3.67;3.67;;;;;;;;5014984;28;46258;-76
2023/08/31 05:26:23;;;;;;;;;4.67;3.67;;;;;;;;5015856;28;46230;-77
2023/08/31 05:28:48;;;;;;;;;4.00;2.67;;;;;;;;5011607;28;45421;-77
2023/08/31 05:31:14;;;;;;;;;5.67;3.33;;;;;;;;5013651;28;45377;-77
2023/08/31 05:33:39;;;;;;;;;5.00;2.67;;;;;;;;5012090;28;45681;-75
2023/08/31 05:36:04;;;;;;;;;5.33;2.67;;;;;;;;5014506;28;46277;-75
2023/08/31 05:38:29;;;;;;;;;3.67;3.00;;;;;;;;5017161;28;45290;-77
2023/08/31 05:41:03;;;;;;;;;4.00;4.00;;;;;;;;5012346;28;45281;-77
2023/08/31 05:43:28;;;;;;;;;5.33;2.00;;;;;;;;5016772;28;46223;-77
2023/08/31 05:45:53;;;;;;;;;5.33;3.00;;;;;;;;5018940;28;45214;-77
2023/08/31 05:48:18;;;;;;;;;4.67;3.67;;;;;;;;5013539;28;45415;-77
2023/08/31 05:50:43;;;;;;;;;4.00;4.00;;;;;;;;5011181;28;45524;-77
2023/08/31 05:53:09;;;;;;;;;5.00;3.00;;;;;;;;5014764;28;45234;-76
2023/08/31 05:55:34;;;;;;;;;5.67;4.67;;;;;;;;5012476;28;45282;-77
2023/08/31 05:58:00;;;;;;;;;4.00;4.00;;;;;;;;5019006;28;46037;-75
2023/08/31 06:00:25;;;;;;;;;4.67;3.67;;;;;;;;5016674;28;45284;-76
2023/08/31 06:02:50;;;;;;;;;4.67;2.67;;;;;;;;5019947;28;46195;-76
2023/08/31 06:05:16;;;;;;;;;3.00;2.67;;;;;;;;5021334;28;45267;-78
2023/08/31 06:07:41;;;;;;;;;6.67;3.00;;;;;;;;5020808;28;45608;-78
2023/08/31 06:10:07;;;;;;;;;6.00;4.67;;;;;;;;5022749;28;45419;-77
2023/08/31 06:12:32;;;;;;;;;4.67;4.00;;;;;;;;5018569;28;45413;-77
2023/08/31 06:14:58;;;;;;;;;10.33;5.00;;;;;;;;5017222;28;45473;-77
2023/08/31 06:17:23;;;;;;;;;6.33;3.00;;;;;;;;5021783;28;45300;-76
2023/08/31 06:19:48;;;;;;;;;4.00;4.00;;;;;;;;5018862;28;45337;-78
2023/08/31 06:22:13;;;;;;;;;7.00;5.00;;;;;;;;5020942;28;45301;-77
2023/08/31 06:24:39;;;;;;;;;3.67;3.00;;;;;;;;5013244;28;45480;-77
2023/08/31 06:27:04;;;;;;;;;2.67;2.67;;;;;;;;5012366;28;45229;-76
2023/08/31 06:29:29;;;;;;;;;5.00;3.00;;;;;;;;5010355;28;45443;-76
2023/08/31 06:31:54;;;;;;;;;6.00;4.67;;;;;;;;5017441;28;45356;-76
2023/08/31 06:34:19;;;;;;;;;2.00;2.00;;;;;;;;5011365;28;45610;-77
2023/08/31 06:36:45;;;;;;;;;3.00;3.00;;;;;;;;5020516;28;45311;-78
2023/08/31 06:39:10;;;;;;;;;6.00;4.00;;;;;;;;5012634;28;45420;-77
2023/08/31 06:41:35;;;;;;;;;7.00;3.33;;;;;;;;5021319;28;45422;-77
2023/08/31 06:44:01;;;;;;;;;5.33;3.67;;;;;;;;5014522;28;45246;-77
2023/08/31 06:46:27;;;;;;;;;3.00;3.00;;;;;;;;5020339;28;45239;-77
2023/08/31 06:48:52;;;;;;;;;4.33;2.67;;;;;;;;5013526;28;45221;-77
2023/08/31 06:51:18;;;;;;;;;4.67;4.00;;;;;;;;5019738;28;45274;-77
2023/08/31 06:53:43;;;;;;;;;3.33;3.00;;;;;;;;5014613;28;45317;-79
2023/08/31 06:56:09;;;;;;;;;3.67;2.67;;;;;;;;5020595;28;45672;-78
2023/08/31 06:58:34;;;;;;;;;4.00;2.33;;;;;;;;5015224;28;45687;-78
2023/08/31 07:00:59;;;;;;;;;5.00;2.67;;;;;;;;5018681;28;46163;-77
2023/08/31 07:03:24;;;;;;;;;2.67;2.00;;;;;;;;5013292;28;45421;-76
2023/08/31 07:05:49;;;;;;;;;4.67;3.67;;;;;;;;5012372;28;45472;-78
2023/08/31 07:08:16;;;;;;;;;6.33;3.00;;;;;;;;5009116;28;45348;-77
2023/08/31 07:10:41;;;;;;;;;5.00;4.67;;;;;;;;5015237;28;45414;-76
2023/08/31 07:13:06;;;;;;;;;3.00;3.00;;;;;;;;5016391;28;47453;-78
2023/08/31 07:15:32;;;;;;;;;3.67;3.00;;;;;;;;5008735;28;45560;-79
2023/08/31 07:17:57;;;;;;;;;6.00;3.33;;;;;;;;5016451;28;45759;-79
2023/08/31 07:20:22;;;;;;;;;5.67;4.00;;;;;;;;5023264;28;45309;-79
2023/08/31 07:22:47;;;;;;;;;7.00;4.67;;;;;;;;5018868;28;45426;-79
2023/08/31 07:25:12;;;;;;;;;3.00;2.67;;;;;;;;5019344;28;45310;-78
2023/08/31 07:27:38;;;;;;;;;4.00;3.33;;;;;;;;5018105;28;45322;-78
2023/08/31 07:30:04;;;;;;;;;4.67;3.67;;;;;;;;5022162;28;45261;-78
2023/08/31 07:32:29;;;;;;;;;6.00;3.33;;;;;;;;5023454;28;45646;-79
2023/08/31 07:34:54;;;;;;;;;6.00;4.33;;;;;;;;5015771;28;45408;-79
2023/08/31 07:37:19;;;;;;;;;3.33;3.33;;;;;;;;5019158;28;45463;-79
2023/08/31 07:39:45;;;;;;;;;5.67;5.00;;;;;;;;5016313;28;45445;-79
2023/08/31 07:42:11;;;;;;;;;5.67;3.00;;;;;;;;5017473;28;47675;-80
2023/08/31 07:44:36;;;;;;;;;5.33;3.00;;;;;;;;5014174;28;45375;-79
2023/08/31 07:47:02;;;;;;;;;4.67;3.67;;;;;;;;5019852;28;45379;-79
2023/08/31 07:49:27;;;;;;;;;3.00;2.00;;;;;;;;5014863;28;45208;-78
2023/08/31 07:51:52;;;;;;;;;10.67;5.67;;;;;;;;5012979;28;45488;-79
2023/08/31 07:54:21;;;;;;;;;4.67;3.67;;;;;;;;5013133;28;45407;-80
2023/08/31 07:56:46;;;;;;;;;8.67;2.00;;;;;;;;5019841;28;45452;-79
2023/08/31 07:59:12;;;;;;;;;4.00;3.00;;;;;;;;5012962;28;45470;-79
2023/08/31 08:01:37;;;;;;;;;2.00;2.00;;;;;;;;5023945;28;46206;-79
2023/08/31 08:04:02;;;;;;;;;12.00;6.67;;;;;;;;5014237;28;45277;-79
2023/08/31 08:06:28;;;;;;;;;3.00;2.00;;;;;;;;5022351;28;45257;-79
2023/08/31 08:08:53;;;;;;;;;5.00;2.33;;;;;;;;5015539;28;45443;-79
2023/08/31 08:11:18;;;;;;;;;5.33;2.00;;;;;;;;5015397;28;47577;-79
2023/08/31 08:13:43;;;;;;;;;3.67;3.67;;;;;;;;5010563;28;45399;-79
2023/08/31 08:16:08;;;;;;;;;3.33;2.67;;;;;;;;5017599;28;45379;-79
2023/08/31 08:18:34;;;;;;;;;3.00;1.67;;;;;;;;5017303;28;45984;-79
2023/08/31 08:20:59;;;;;;;;;4.00;4.00;;;;;;;;5022514;28;45348;-79
2023/08/31 08:23:24;;;;;;;;;4.33;2.67;;;;;;;;5015241;28;45352;-81
2023/08/31 08:25:49;;;;;;;;;2.67;2.67;;;;;;;;5012555;28;45586;-79
2023/08/31 08:28:15;;;;;;;;;5.33;3.00;;;;;;;;5012049;28;45340;-79
2023/08/31 08:30:40;;;;;;;;;4.33;3.00;;;;;;;;5000221;28;45393;-79
2023/08/31 08:33:05;;;;;;;;;2.00;2.00;;;;;;;;5012422;28;45465;-79
2023/08/31 08:35:30;;;;;;;;;2.00;2.00;;;;;;;;5001203;28;45312;-79
2023/08/31 08:37:55;;;;;;;;;2.67;1.67;;;;;;;;5011534;28;45511;-79
2023/08/31 08:40:21;;;;;;;;;8.00;4.00;;;;;;;;5016663;28;45515;-78
2023/08/31 08:42:46;;;;;;;;;3.33;3.33;;;;;;;;5015874;28;45392;-78
2023/08/31 08:45:15;;;;;;;;;3.00;3.00;;;;;;;;5015453;28;45462;-78
2023/08/31 08:47:42;;;;;;;;;4.00;3.00;;;;;;;;5017148;28;45374;-78
2023/08/31 08:50:07;;;;;;;;;4.00;4.00;;;;;;;;5014641;28;46626;-78
2023/08/31 08:52:33;;;;;;;;;5.00;5.00;;;;;;;;5016659;28;45391;-77
2023/08/31 08:54:59;;;;;;;;;6.67;3.00;;;;;;;;5012970;28;45327;-77
2023/08/31 08:57:24;;;;;;;;;4.00;4.00;;;;;;;;5017915;28;45481;-77
2023/08/31 08:59:49;;;;;;;;;5.00;4.00;;;;;;;;5012608;28;45379;-77
2023/08/31 09:02:15;;;;;;;;;3.00;2.33;;;;;;;;5018600;28;45256;-78
2023/08/31 09:04:40;;;;;;;;;4.00;4.00;;;;;;;;5009256;28;45446;-78
2023/08/31 09:07:05;;;;;;;;;5.33;4.00;;;;;;;;5016782;28;45237;-77
2023/08/31 09:09:30;;;;;;;;;3.00;1.33;;;;;;;;5010406;28;45524;-78
2023/08/31 09:11:55;;;;;;;;;1.33;1.00;;;;;;;;5017619;28;45297;-79
2023/08/31 09:14:21;;;;;;;;;6.33;5.00;;;;;;;;5018962;28;45432;-77
2023/08/31 09:16:47;;;;;;;;;3.00;3.00;;;;;;;;5024423;28;45898;-77
2023/08/31 09:19:22;;;;;;;;;6.00;2.67;;;;;;;;5013620;28;45233;-77
2023/08/31 09:21:48;;;;;;;;;2.67;2.67;;;;;;;;5033922;28;45198;-77
2023/08/31 09:24:14;;;;;;;;;3.67;3.00;;;;;;;;5011900;28;45423;-77
2023/08/31 09:26:51;;;;;;;;;5.00;3.00;;;;;;;;5021497;28;45572;-78
2023/08/31 09:29:16;;;;;;;;;5.33;4.67;;;;;;;;5007696;28;45249;-76
2023/08/31 09:31:43;;;;;;;;;5.33;5.00;;;;;;;;5008650;28;44825;-78
2023/08/31 09:34:09;;;;;;;;;5.00;5.00;;;;;;;;5012240;28;45565;-78
2023/08/31 09:36:34;;;;;;;;;8.00;6.00;;;;;;;;5010622;28;45237;-77
2023/08/31 09:38:59;;;;;;;;;5.67;5.00;;;;;;;;5014104;28;45524;-78
2023/08/31 09:41:24;;;;;;;;;6.00;3.33;;;;;;;;5012031;28;45244;-78
2023/08/31 09:43:50;;;;;;;;;3.00;3.00;;;;;;;;5014859;28;45284;-77
2023/08/31 09:46:15;;;;;;;;;3.00;3.00;;;;;;;;5013046;28;45415;-77
2023/08/31 09:48:41;;;;;;;;;5.67;4.67;;;;;;;;5014765;28;45437;-78
2023/08/31 09:51:09;;;;;;;;;4.67;4.00;;;;;;;;5014062;28;45447;-77
2023/08/31 09:53:36;;;;;;;;;9.00;7.00;;;;;;;;5014855;28;45501;-78
2023/08/31 09:56:02;;;;;;;;;7.00;5.67;;;;;;;;5014484;28;45321;-77
2023/08/31 09:58:27;;;;;;;;;3.00;3.00;;;;;;;;5014752;28;46070;-77
2023/08/31 10:00:53;;;;;;;;;5.00;4.67;;;;;;;;5015319;28;45329;-77
2023/08/31 10:03:20;;;;;;;;;5.00;2.67;;;;;;;;5015061;28;45458;-77
2023/08/31 10:05:45;;;;;;;;;4.00;4.00;;;;;;;;5016364;28;45536;-78
2023/08/31 10:08:14;;;;;;;;;2.00;2.00;;;;;;;;5015189;28;45422;-77
2023/08/31 10:10:39;;;;;;;;;5.00;3.67;;;;;;;;5032829;28;45211;-77
2023/08/31 10:13:04;;;;;;;;;6.33;5.33;;;;;;;;5016637;28;45286;-77
2023/08/31 10:15:35;;;;;;;;;5.33;5.33;;;;;;;;5019098;28;45530;-77
2023/08/31 10:18:01;;;;;;;;;6.00;4.67;;;;;;;;5017843;28;46465;-78
2023/08/31 10:20:28;;;;;;;;;10.00;7.00;;;;;;;;5017519;28;45383;-76
2023/08/31 10:22:54;;;;;;;;;4.67;4.67;;;;;;;;5023205;28;45348;-76
2023/08/31 10:25:19;;;;;;;;;10.00;9.67;;;;;;;;5011660;28;45440;-77
2023/08/31 10:27:50;;;;;;;;;6.00;6.00;;;;;;;;5017407;28;45953;-78
2023/08/31 10:30:21;;;;;;;;;11.33;8.67;;;;;;;;5007486;28;45587;-78
2023/08/31 10:33:01;;;;;;;;;5.67;5.67;;;;;;;;5001706;28;45551;-77
2023/08/31 10:35:40;;;;;;;;;6.67;4.00;;;;;;;;5009171;28;45415;-77
2023/08/31 10:38:15;;;;;;;;;7.00;5.33;;;;;;;;5005291;28;45294;-78
2023/08/31 10:40:41;;;;;;;;;6.00;6.00;;;;;;;;5004960;28;45459;-78
2023/08/31 10:43:16;;;;;;;;;5.00;5.00;;;;;;;;5014681;28;45317;-78
2023/08/31 10:45:44;;;;;;;;;5.33;3.67;;;;;;;;5018283;28;45640;-77
2023/08/31 10:48:09;;;;;;;;;4.00;4.00;;;;;;;;5014322;28;47339;-78
2023/08/31 10:50:41;;;;;;;;;8.67;5.33;;;;;;;;5018569;28;45341;-77
2023/08/31 10:53:09;;;;;;;;;9.00;7.67;;;;;;;;5005550;28;45348;-78
2023/08/31 10:55:49;;;;;;;;;6.33;5.67;;;;;;;;5012794;28;45391;-79
2023/08/31 10:58:14;;;;;;;;;4.33;3.33;;;;;;;;5014321;28;46221;-80
2023/08/31 11:00:46;;;;;;;;;5.00;3.00;;;;;;;;5020241;28;45431;-80
2023/08/31 11:03:12;;;;;;;;;4.33;3.67;;;;;;;;5016134;28;45453;-80
2023/08/31 11:05:49;;;;;;;;;6.00;5.67;;;;;;;;5021930;28;45288;-77
2023/08/31 11:08:15;;;;;;;;;5.33;3.00;;;;;;;;5022778;28;45501;-80
2023/08/31 11:10:45;;;;;;;;;5.33;4.67;;;;;;;;5018821;28;45390;-79
2023/08/31 11:13:15;;;;;;;;;4.00;4.00;;;;;;;;5016412;28;44851;-80
2023/08/31 11:15:45;;;;;;;;;3.67;3.67;;;;;;;;5011403;28;45453;-80
2023/08/31 11:18:10;;;;;;;;;6.00;6.00;;;;;;;;5016525;28;45320;-80
2023/08/31 11:20:36;;;;;;;;;4.33;4.33;;;;;;;;5012565;28;45365;-78
2023/08/31 11:23:02;;;;;;;;;4.00;4.00;;;;;;;;5011627;28;45525;-77
2023/08/31 11:25:30;;;;;;;;;5.00;4.67;;;;;;;;5017794;28;45503;-76
2023/08/31 11:27:56;;;;;;;;;4.00;4.00;;;;;;;;5017344;28;45495;-78
2023/08/31 11:30:21;;;;;;;;;7.33;4.33;;;;;;;;5018398;28;45427;-79
2023/08/31 11:32:47;;;;;;;;;7.67;4.33;;;;;;;;5011606;28;45377;-78
2023/08/31 11:35:13;;;;;;;;;6.67;5.00;;;;;;;;5005000;28;45388;-79
2023/08/31 11:37:39;;;;;;;;;6.33;4.33;;;;;;;;5014543;28;45565;-79
2023/08/31 11:40:05;;;;;;;;;7.67;6.00;;;;;;;;5010293;28;45289;-78
2023/08/31 11:42:30;;;;;;;;;4.67;4.00;;;;;;;;5014272;28;45270;-78
2023/08/31 11:44:56;;;;;;;;;5.00;4.00;;;;;;;;5015731;28;45549;-77
2023/08/31 11:47:21;;;;;;;;;4.67;3.33;;;;;;;;5018741;28;45521;-78
2023/08/31 11:49:48;;;;;;;;;3.00;2.67;;;;;;;;5010364;28;45364;-77
2023/08/31 11:52:13;;;;;;;;;6.33;4.33;;;;;;;;5015283;28;45292;-78
2023/08/31 11:54:42;;;;;;;;;2.00;2.00;;;;;;;;5015589;28;47179;-77
2023/08/31 11:57:08;;;;;;;;;3.67;3.00;;;;;;;;5014977;28;45593;-79
2023/08/31 11:59:34;;;;;;;;;2.67;1.33;;;;;;;;5010123;28;45657;-79
2023/08/31 12:01:59;;;;;;;;;0.67;0.33;;;;;;;;5014973;28;45302;-78
2023/08/31 12:04:28;;;;;;;;;2.33;1.67;;;;;;;;5012068;28;45372;-77
2023/08/31 12:07:00;;;;;;;;;2.33;2.00;;;;;;;;5013205;28;47785;-77
2023/08/31 12:09:27;;;;;;;;;4.67;3.00;;;;;;;;5016385;28;46286;-76
2023/08/31 12:11:52;;;;;;;;;4.67;3.00;;;;;;;;5016074;28;45474;-77
2023/08/31 12:14:21;;;;;;;;;1.33;1.33;;;;;;;;5006284;28;45527;-75
2023/08/31 12:16:47;;;;;;;;;0.67;0.67;;;;;;;;5016976;28;46083;-76
2023/08/31 12:19:12;;;;;;;;;2.67;2.00;;;;;;;;5007744;28;45412;-76
2023/08/31 12:21:37;;;;;;;;;3.67;1.67;;;;;;;;5016888;28;45465;-75
2023/08/31 12:24:04;;;;;;;;;3.33;2.00;;;;;;;;5013574;28;45510;-78
2023/08/31 12:26:30;;;;;;;;;3.00;2.00;;;;;;;;5016185;28;45719;-79
2023/08/31 12:28:55;;;;;;;;;7.00;4.33;;;;;;;;5004828;28;45529;-78
2023/08/31 12:31:22;;;;;;;;;2.67;2.67;;;;;;;;5016569;28;45454;-78
2023/08/31 12:33:47;;;;;;;;;5.33;2.67;;;;;;;;5011397;28;45690;-75
2023/08/31 12:36:13;;;;;;;;;3.00;3.00;;;;;;;;5014924;28;46212;-77
2023/08/31 12:38:38;;;;;;;;;11.00;4.33;;;;;;;;5010463;28;45298;-77
2023/08/31 12:41:03;;;;;;;;;4.67;4.00;;;;;;;;5014773;28;45348;-77
2023/08/31 12:43:29;;;;;;;;;3.00;3.00;;;;;;;;5013647;28;45321;-77
2023/08/31 12:45:57;;;;;;;;;3.33;2.67;;;;;;;;5015139;28;45477;-74
2023/08/31 12:48:22;;;;;;;;;3.67;2.67;;;;;;;;5014038;28;45533;-77
2023/08/31 12:50:50;;;;;;;;;4.67;4.00;;;;;;;;5012669;28;45450;-77
2023/08/31 12:53:15;;;;;;;;;2.67;2.67;;;;;;;;5009538;28;45462;-76
2023/08/31 12:55:41;;;;;;;;;3.00;2.33;;;;;;;;5008966;28;45399;-76
2023/08/31 12:58:06;;;;;;;;;7.00;4.00;;;;;;;;5012679;28;45506;-76
2023/08/31 13:00:32;;;;;;;;;2.67;1.67;;;;;;;;5010065;28;45345;-76
2023/08/31 13:02:57;;;;;;;;;2.33;2.33;;;;;;;;5014053;28;46005;-75
2023/08/31 13:05:22;;;;;;;;;2.33;2.33;;;;;;;;5012878;28;45529;-75
2023/08/31 13:07:47;;;;;;;;;4.33;4.33;;;;;;;;5008146;28;45512;-75
2023/08/31 13:10:13;;;;;;;;;5.00;3.33;;;;;;;;5011941;28;45270;-74
2023/08/31 13:12:38;;;;;;;;;3.67;2.67;;;;;;;;5001695;28;45246;-75
2023/08/31 13:15:03;;;;;;;;;3.67;2.33;;;;;;;;5009631;28;47238;-75
2023/08/31 13:17:28;;;;;;;;;1.00;1.00;;;;;;;;5006078;28;45608;-75
2023/08/31 13:19:54;;;;;;;;;4.00;4.00;;;;;;;;5003417;28;45491;-75
2023/08/31 13:22:21;;;;;;;;;6.00;4.33;;;;;;;;5021285;28;45593;-76
2023/08/31 13:24:46;;;;;;;;;3.33;3.00;;;;;;;;5011718;28;45510;-75
2023/08/31 13:27:11;;;;;;;;;5.00;4.33;;;;;;;;5017549;28;45435;-76
2023/08/31 13:29:36;;;;;;;;;8.00;4.00;;;;;;;;5007351;28;45502;-76
2023/08/31 13:32:02;;;;;;;;;5.67;5.67;;;;;;;;5016377;28;46336;-76
2023/08/31 13:34:27;;;;;;;;;5.67;4.67;;;;;;;;5008171;28;45096;-75
2023/08/31 13:36:52;;;;;;;;;6.00;5.00;;;;;;;;5008719;28;45562;-76
2023/08/31 13:39:18;;;;;;;;;5.00;5.00;;;;;;;;5010457;28;45281;-76
2023/08/31 13:41:45;;;;;;;;;6.67;5.33;;;;;;;;5016266;28;47463;-75
2023/08/31 13:44:10;;;;;;;;;6.33;5.67;;;;;;;;5007643;28;47020;-75
2023/08/31 13:46:36;;;;;;;;;5.00;5.00;;;;;;;;5017914;28;45364;-75
2023/08/31 13:49:02;;;;;;;;;2.00;2.00;;;;;;;;5008945;28;45277;-75
2023/08/31 13:51:27;;;;;;;;;5.00;5.00;;;;;;;;5011357;28;45503;-75
2023/08/31 13:53:53;;;;;;;;;8.00;5.67;;;;;;;;5013310;28;47180;-75
2023/08/31 13:56:18;;;;;;;;;6.67;6.67;;;;;;;;5017988;28;45313;-75
2023/08/31 13:58:43;;;;;;;;;5.00;3.67;;;;;;;;5013014;28;45546;-76
2023/08/31 14:01:08;;;;;;;;;8.00;7.67;;;;;;;;5009914;28;45490;-75
2023/08/31 14:03:33;;;;;;;;;5.33;5.33;;;;;;;;5014875;28;46671;-74
2023/08/31 14:05:59;;;;;;;;;10.33;7.33;;;;;;;;5020495;28;45314;-75
2023/08/31 14:08:24;;;;;;;;;9.33;7.67;;;;;;;;5016413;28;45169;-75
2023/08/31 14:10:49;;;;;;;;;6.67;6.00;;;;;;;;5017717;28;45341;-75
2023/08/31 14:13:14;;;;;;;;;6.00;6.00;;;;;;;;5014985;28;46314;-75
2023/08/31 14:15:45;;;;;;;;;8.33;6.00;;;;;;;;5012963;28;45222;-75
2023/08/31 14:18:11;;;;;;;;;5.00;4.67;;;;;;;;5017861;28;45421;-75
2023/08/31 14:20:36;;;;;;;;;5.67;5.00;;;;;;;;5028164;28;45313;-75
2023/08/31 14:23:02;;;;;;;;;7.00;6.33;;;;;;;;5018475;28;46931;-75
2023/08/31 14:25:27;;;;;;;;;8.00;5.00;;;;;;;;5019622;28;45337;-75
2023/08/31 14:27:52;;;;;;;;;4.00;4.00;;;;;;;;5019287;28;45577;-75
2023/08/31 14:30:17;;;;;;;;;3.67;3.67;;;;;;;;5018982;28;45269;-75
2023/08/31 14:32:43;;;;;;;;;7.00;5.00;;;;;;;;5020759;28;45158;-75
2023/08/31 14:35:08;;;;;;;;;6.00;6.00;;;;;;;;5020632;28;45268;-75
2023/08/31 14:37:33;;;;;;;;;4.67;3.67;;;;;;;;5019371;28;45272;-75